Главная страница
METAR-TAF:

METAR-TAF

Аэропорты :

Яссы, Румыния

широта: 47-10N, долгота: 027-38E, высота над уровнем моря: 102 м

Текущие метеонаблюдения

Эта сводка был подготовлена 23 минут назад, в 10:00 UTC
Ветер 4 Узел от северо-западный
Температура 13°C
Влажность 58%
Давление 1022 hPa
Видимость 10 км и более
Рассеянная облачность на высоте 1700 фута

METAR: LRIA 231000Z 31004KT 9999 BKN017 13/05 Q1022

Время: 12:23 (10:23 UTC)

Прогноз

Эта сводка был подготовлена 2 часа и 23 минут назад, в 08:00 UTC
Прогноз действительный с 23-го 09 UTC до 23-го 18 UTC
Ветер 4 Узел переменных направлений
Видимость 10 км и более
Рассеянная облачность на высоте 1000 фута
изменения
С 23-го 10 UTC до 23-го 12 UTC
Ветер 10 Узел от восточно-юго-восточный
Рассеянная облачность на высоте 2000 фута

TAF: LRIA 230800Z 2309/2318 VRB04KT 9999 BKN010 BECMG 2310/2312 12010KT BKN020

Метеонаблюдения и прогнозы для более 4000 аэропортов (сводки METAR и TAF).

Имеющиеся станции представлены на карте желтыми и красными точками.

Чтобы увидеть название станции, наведите на нее мышь.

Затем щелкните, чтобы увидеть метеонаблюдения и метеопрогнозы.

Управление картой: чтобы увеличить масштаб, щелкните зеленые кнопки с черным крестиком; чтобы уменьшить масштаб, щелкните зеленую кнопку с тире; для просмотра соседних карт щелкайте зеленые стрелки.


METAR-TAF: